Imperial Beach, CA (91933)

1:29 PM PDT on September 18, 2014 (GMT -0700)
Hilltop | Change Station
CLOSE
Current Station
Personal Weather Station
Location: Chula Vista, CA
Elevation: 195 ft
Nearby Weather Stations
Active Advisory: Beach Hazard Statement Active Notice: Record Report

Elev 195 ft 32.63 °N, 117.06 °W | Updated 1 minute ago

Partly Cloudy
Partly Cloudy
79.5 °F
Feels Like 82 °F
N
10.0
Wind Variable Wind from NW
Gusts 16.9 mph

Today
High -- | Low -- °F
--% Chance of Precip.
Yesterday
High -- | Low -- °F
Precip. -- in
6:34 AM 6:50 PM
Waning Crescent, 24% visible
Pressure 29.87 in
Visibility 10.0 miles
Clouds Few 2500 ft
Heat Index 82 °F
Dew Point 68 °F
Humidity 63%
Rainfall 0.00 in
Snow Depth 0 in , 0 in , 0 in
UV 9 out of 12
Pollen 6.10 out of 12
Air Quality Not available.
Flu Activity Not available.
METAR KNRS 181956Z 30013KT 10SM FEW025 26/19 A2987 RMK AO2 SLP115 T02560194

More Conditions Fewer Conditions

Pressure 29.87 in
Visibility 10.0 miles
Clouds Few 2500 ft
Heat Index 82 °F
Dew Point 68 °F
Humidity 63%
Rainfall 0.00 in
Snow Depth 0 in , 0 in , 0 in
UV 9 out of 12
Pollen 6.10 out of 12
Air Quality Not available.
Flu Activity Not available.
METAR KNRS 181956Z 30013KT 10SM FEW025 26/19 A2987 RMK AO2 SLP115 T02560194

More Conditions Fewer Conditions

10-Day Weather Forecast

Almanac

Astronomy

Sep. 18, 2014 Rise Set
Actual Time 6:34 AM PDT 6:50 PM PDT
Civil Twilight 6:09 AM PDT 7:14 PM PDT
Nautical Twilight 5:40 AM PDT 7:43 PM PDT
Astronomical Twilight 5:11 AM PDT 8:12 PM PDT
Moon 1:42 AM PDT 3:32 PM PDT
Length of Visible Light 13h 05m
Length of Day
12h 16m
Tomorrow will be 1m 59s shorter.
Waning Crescent, 24% of the Moon is Illuminated
Today
Waning Crescent
Sep 24
New
Oct 1
First Quarter
Oct 8
Full
Oct 15
Last Quarter

Today's Extremes

State Highs State Lows

Community

WunderPhotos

Upload Photos

1,754,423 photos uploaded!

WunderBlogs® & News

By Dr. Jeff Masters
Director of Meteorology, Weather Underground
By Kari Strenfel
Meteorologist, Weather Underground
By Christopher C. Burt
Weather Historian, Weather Underground
September 18, 2014
September 18, 2014
September 18, 2014

Nearby

Air Quality

  Air Quality AQ Index Pollutant
Yesterday Moderate
PM2.5
Yesterday Good
OZONE
Thursday Moderate
PM2.5
Thursday Moderate
OZONE
Friday Good
PM2.5
Friday Good
OZONE

Snow Depth

Station Depth Elevation
Burnside Lake 0 in 8139 ft
Adin Mountain 0 in 6200 ft
Summit Meadow 0 in 9122 ft
Forestdale Creek 0 in 8029 ft
Leavitt Meadows 0 in 7200 ft

Earthquake Activity

City Distance Mag. Time & Date
La Quinta, California 74 miles 2.7 8:59 PM PDT
2014-09-15
Minimum magnitude displayed is 2.5.

Coastal Water Temperatures

Place Temperature
La Jolla, CA 72.0 °F
San Diego, CA 77.0 °F

Nearby Weather Stations